LJPZ METAR and TAF | Updated Today

LJPZ METAR

Portoroz Airport

Observation time: 14 min. ago

LJPZ 010800Z 24004KT 9999 FEW015 BKN038 18/15 Q1015

Need help? Read our tutorial on how to read METARs or read the parsed version below.

Portoroz Airport (LJPZ) METAR

  • Weather conditions on Sat, 01 Oct 2022 08:00:00 +0000 (14 min. ago):
  • Present conditions: Dry
  • Clouds: A few at 457 meters; broken sky at 1158 meters
  • Visibility: Greater than 10 km
  • Wind: 240 degrees at 4 knots
  • Temperature: 18 celsius
  • Dew point: 15 celsius
  • Pressure: 1015 millibars
  • Remarks: None


Useful to know...

LJPZ TAF

Portoroz Airport

TAF LJPZ 010500Z 0106/0115 15005KT 9999 FEW035 SCT045 BKN080 BECMG 0108/0110 23010KT
Observation time: 3:14 hr. ago
Need help? Read our tutorial on how to read TAFs or read the parsed version below.

Parsed version of TAF for Portoroz Airport (LJPZ)

  • From 01 October at 06:00 UTC, to day 01 of the month at 15:00 UTC
  • Clouds: A few at 1067 meters; scattered at 1372 meters; broken sky at 2438 meters
  • Visibility: Greater than 10 km
  • Wind: 150 degrees at 5
  • Expected to arise soon, from 01 October at 08:00 UTC, to day 01 of the month at 10:00 UTC
  • Wind: 230 degrees at 10